createdAt,value
2023-04-01T00:01:35.356Z,95.20
2023-04-01T00:04:38.451Z,95.13
2023-04-01T00:07:41.341Z,95.23
2023-04-01T00:10:44.286Z,94.99
2023-04-01T00:13:46.800Z,95.00
2023-04-01T00:16:49.642Z,94.71
2023-04-01T00:19:52.280Z,95.04
2023-04-01T00:22:55.249Z,94.98
2023-04-01T00:26:01.081Z,94.61
2023-04-01T00:29:04.078Z,94.75
2023-04-01T00:32:06.977Z,95.04
2023-04-01T00:35:10.239Z,95.16
2023-04-01T00:38:13.565Z,95.31
2023-04-01T00:41:18.084Z,95.12
2023-04-01T00:44:26.389Z,94.35
2023-04-01T00:47:29.282Z,94.63
2023-04-01T00:50:32.263Z,94.67
2023-04-01T00:53:39.555Z,94.20
2023-04-01T00:56:59.747Z,93.27
2023-04-01T01:00:04.297Z,92.78
2023-04-01T01:03:08.465Z,92.46
2023-04-01T01:06:33.193Z,92.26
2023-04-01T01:09:44.461Z,92.08
2023-04-01T01:13:02.822Z,91.91
2023-04-01T01:16:08.331Z,92.95
2023-04-01T01:19:23.313Z,94.05
2023-04-01T01:22:40.411Z,94.13
2023-04-01T01:25:43.417Z,94.00
2023-04-01T01:29:16.864Z,94.43
2023-04-01T01:32:38.904Z,94.62
2023-04-01T01:35:46.006Z,95.36
2023-04-01T01:38:49.982Z,95.52
2023-04-01T01:41:52.764Z,96.00
2023-04-01T01:44:56.787Z,95.85
2023-04-01T01:48:00.027Z,95.59
2023-04-01T01:51:04.942Z,95.85
2023-04-01T01:54:07.706Z,94.99
2023-04-01T01:57:11.311Z,94.99
2023-04-01T02:00:15.439Z,94.77
2023-04-01T02:03:21.369Z,95.27
2023-04-01T02:06:25.770Z,96.04
2023-04-01T02:09:30.400Z,96.29
2023-04-01T02:12:34.566Z,96.27
2023-04-01T02:15:42.940Z,96.91
2023-04-01T02:18:46.763Z,96.72
2023-04-01T02:21:52.822Z,97.27
2023-04-01T02:24:59.446Z,96.44
2023-04-01T02:28:03.375Z,97.27
2023-04-01T02:31:06.423Z,95.95
2023-04-01T02:34:09.490Z,96.54
2023-04-01T02:37:13.295Z,96.33
2023-04-01T02:40:17.765Z,97.08
2023-04-01T02:43:22.302Z,97.18
2023-04-01T02:46:25.845Z,97.44
2023-04-01T02:49:28.369Z,97.19
2023-04-01T02:52:31.888Z,97.15
2023-04-01T02:55:35.562Z,96.05
2023-04-01T02:58:38.668Z,96.28
2023-04-01T03:01:41.356Z,96.89
2023-04-01T03:04:44.804Z,96.84
2023-04-01T03:07:47.863Z,96.35
2023-04-01T03:10:51.005Z,96.64
2023-04-01T03:13:53.574Z,96.58
2023-04-01T03:16:56.590Z,96.67
2023-04-01T03:19:59.299Z,96.53
2023-04-01T03:23:02.173Z,96.29
2023-04-01T03:26:04.727Z,96.28
2023-04-01T03:29:07.549Z,96.25
2023-04-01T03:32:10.331Z,95.87
2023-04-01T03:35:13.384Z,96.28
2023-04-01T03:38:16.670Z,96.18
2023-04-01T03:41:19.955Z,97.08
2023-04-01T03:44:22.754Z,97.01
2023-04-01T03:47:25.997Z,96.79
2023-04-01T03:50:30.410Z,97.02
2023-04-01T03:53:33.990Z,96.15
2023-04-01T03:56:37.315Z,94.94
2023-04-01T03:59:40.130Z,94.95
2023-04-01T04:02:43.674Z,95.11
2023-04-01T04:05:48.799Z,95.66
2023-04-01T04:08:51.923Z,96.01
2023-04-01T04:11:55.229Z,95.16
2023-04-01T04:14:57.889Z,95.81
2023-04-01T04:18:01.057Z,96.86
2023-04-01T04:21:04.827Z,96.73
2023-04-01T04:24:07.999Z,97.48
2023-04-01T04:27:11.120Z,97.32
2023-04-01T04:30:18.791Z,97.21
2023-04-01T04:33:25.749Z,97.26
2023-04-01T04:36:28.831Z,96.83
2023-04-01T04:39:31.578Z,96.18
2023-04-01T04:42:35.056Z,96.24
2023-04-01T04:45:38.505Z,96.11
2023-04-01T04:48:42.556Z,96.32
2023-04-01T04:51:45.179Z,95.62
2023-04-01T04:54:48.345Z,96.23
2023-04-01T04:57:50.852Z,96.17
2023-04-01T05:00:54.071Z,97.11
2023-04-01T05:03:56.935Z,96.86
2023-04-01T05:06:59.702Z,96.98
2023-04-01T05:10:02.337Z,97.48
2023-04-01T05:13:05.539Z,97.81
2023-04-01T05:16:11.053Z,97.83
2023-04-01T05:19:13.967Z,97.60
2023-04-01T05:22:16.601Z,98.46
2023-04-01T05:25:19.762Z,98.79
2023-04-01T05:28:22.238Z,99.44
2023-04-01T05:31:25.257Z,99.69
2023-04-01T05:34:27.941Z,99.97
2023-04-01T05:37:30.813Z,100.00
2023-04-01T05:40:39.089Z,99.58
2023-04-01T05:43:42.902Z,100.00
2023-04-01T05:46:46.555Z,100.00
2023-04-01T05:49:50.304Z,100.00
2023-04-01T05:52:53.629Z,100.00
2023-04-01T05:56:04.174Z,100.00
2023-04-01T05:59:07.600Z,100.00
2023-04-01T06:02:11.864Z,100.00
2023-04-01T06:05:16.620Z,100.00
2023-04-01T06:08:20.438Z,100.00
2023-04-01T06:11:38.406Z,99.11
2023-04-01T06:15:02.936Z,96.12
2023-04-01T06:18:43.253Z,95.61
2023-04-01T06:21:52.557Z,96.03
2023-04-01T06:25:01.658Z,93.22
2023-04-01T06:28:19.415Z,90.98
2023-04-01T06:31:40.437Z,91.01
2023-04-01T06:35:04.938Z,90.84
2023-04-01T06:38:20.254Z,90.10
2023-04-01T06:41:41.382Z,89.52
2023-04-01T06:44:47.208Z,87.78
2023-04-01T06:48:12.331Z,87.51
2023-04-01T06:51:49.677Z,87.03
2023-04-01T06:55:38.787Z,85.11
2023-04-01T06:58:47.703Z,85.31
2023-04-01T07:01:54.095Z,84.43
2023-04-01T07:04:59.341Z,83.33
2023-04-01T07:08:05.747Z,82.72
2023-04-01T07:11:13.830Z,82.05
2023-04-01T07:14:25.463Z,82.60
2023-04-01T07:17:34.997Z,79.11
2023-04-01T07:20:39.116Z,80.34
2023-04-01T07:23:45.658Z,81.13
2023-04-01T07:26:56.845Z,80.12
2023-04-01T07:30:02.430Z,78.38
2023-04-01T07:33:16.216Z,75.92
2023-04-01T07:36:33.714Z,74.86
2023-04-01T07:39:36.469Z,73.00
2023-04-01T07:43:12.602Z,74.44
2023-04-01T07:46:19.786Z,71.09
2023-04-01T07:49:35.619Z,70.50
2023-04-01T07:52:44.380Z,68.61
2023-04-01T07:56:10.256Z,68.16
2023-04-01T07:59:39.029Z,69.45
2023-04-01T08:03:05.244Z,68.55
2023-04-01T08:06:21.118Z,67.74
2023-04-01T08:09:39.098Z,68.98
2023-04-01T08:13:23.100Z,67.55
2023-04-01T08:16:49.215Z,68.06
2023-04-01T08:20:02.150Z,67.62
2023-04-01T08:23:13.285Z,67.99
2023-04-01T08:26:30.615Z,67.97
2023-04-01T08:29:49.393Z,66.81
2023-04-01T08:32:58.724Z,66.76
2023-04-01T08:36:10.871Z,68.14
2023-04-01T08:39:18.939Z,66.55
2023-04-01T08:42:41.175Z,67.14
2023-04-01T08:46:15.042Z,65.86
2023-04-01T08:50:04.597Z,64.67
2023-04-01T08:53:36.030Z,64.86
2023-04-01T08:56:48.876Z,65.81
2023-04-01T09:00:31.725Z,66.41
2023-04-01T09:03:37.431Z,65.65
2023-04-01T09:06:46.174Z,66.32
2023-04-01T09:10:00.976Z,65.09
2023-04-01T09:13:31.895Z,64.38
2023-04-01T09:16:59.461Z,65.42
2023-04-01T09:20:33.790Z,64.37
2023-04-01T09:24:16.138Z,65.08
2023-04-01T09:27:39.236Z,64.47
2023-04-01T09:30:56.859Z,64.31
2023-04-01T09:34:33.677Z,64.71
2023-04-01T09:37:42.651Z,63.60
2023-04-01T09:40:48.335Z,65.10
2023-04-01T09:44:02.737Z,63.45
2023-04-01T09:47:24.110Z,64.71
2023-04-01T09:51:07.504Z,63.76
2023-04-01T09:54:47.984Z,63.89
2023-04-01T09:58:13.040Z,63.35
2023-04-01T10:01:28.986Z,64.44
2023-04-01T10:04:38.653Z,63.65
2023-04-01T10:07:57.610Z,63.88
2023-04-01T10:11:06.511Z,62.96
2023-04-01T10:14:16.437Z,64.56
2023-04-01T10:17:37.987Z,64.14
2023-04-01T10:21:19.870Z,64.68
2023-04-01T10:24:40.432Z,63.09
2023-04-01T10:28:11.619Z,63.27
2023-04-01T10:31:51.857Z,62.87
2023-04-01T10:35:11.136Z,63.44
2023-04-01T10:38:24.341Z,64.58
2023-04-01T10:41:38.006Z,63.80
2023-04-01T10:45:04.337Z,64.07
2023-04-01T10:48:11.131Z,64.68
2023-04-01T10:51:48.085Z,64.98
2023-04-01T10:59:09.142Z,65.57
2023-04-01T11:02:57.514Z,66.30
2023-04-01T11:06:50.153Z,65.60
2023-04-01T11:10:02.192Z,65.95
2023-04-01T11:13:34.615Z,66.60
2023-04-01T11:17:14.329Z,65.38
2023-04-01T11:20:35.869Z,66.16
2023-04-01T11:24:05.195Z,67.35
2023-04-01T11:27:22.372Z,66.10
2023-04-01T11:30:45.940Z,65.45
2023-04-01T11:33:55.925Z,63.40
2023-04-01T11:37:04.711Z,63.40
2023-04-01T11:40:26.420Z,62.98
2023-04-01T11:43:35.955Z,63.19
2023-04-01T11:47:08.970Z,63.49
2023-04-01T11:50:45.370Z,63.42
2023-04-01T11:54:29.563Z,63.98
2023-04-01T11:57:53.542Z,64.36
2023-04-01T12:00:59.824Z,63.83
2023-04-01T12:04:21.033Z,64.65
2023-04-01T12:08:06.389Z,64.35
2023-04-01T12:11:27.666Z,65.10
2023-04-01T12:15:01.813Z,64.76
2023-04-01T12:18:31.969Z,63.55
2023-04-01T12:21:39.948Z,63.78
2023-04-01T12:25:17.190Z,62.96
2023-04-01T12:28:19.714Z,62.50
2023-04-01T12:31:25.791Z,61.60
2023-04-01T12:34:59.629Z,62.12
2023-04-01T12:38:31.982Z,60.75
2023-04-01T12:41:53.041Z,59.52
2023-04-01T12:45:26.947Z,59.61
2023-04-01T12:48:35.981Z,58.63
2023-04-01T12:52:00.874Z,59.65
2023-04-01T12:55:09.594Z,59.01
2023-04-01T12:58:18.160Z,59.04
2023-04-01T13:01:31.649Z,57.69
2023-04-01T13:04:47.204Z,56.45
2023-04-01T13:08:02.298Z,56.36
2023-04-01T13:11:08.290Z,54.61
2023-04-01T13:14:45.608Z,54.16
2023-04-01T13:18:03.444Z,55.32
2023-04-01T13:21:07.225Z,52.34
2023-04-01T13:24:41.092Z,54.41
2023-04-01T13:27:46.041Z,50.98
2023-04-01T13:31:07.808Z,50.07
2023-04-01T13:34:22.720Z,50.72
2023-04-01T13:37:34.413Z,49.71
2023-04-01T13:41:01.701Z,50.23
2023-04-01T13:44:17.338Z,49.99
2023-04-01T13:47:37.282Z,50.53
2023-04-01T13:50:40.169Z,48.81
2023-04-01T13:54:15.265Z,48.92
2023-04-01T13:57:38.566Z,49.18
2023-04-01T14:00:59.700Z,50.17
2023-04-01T14:04:23.717Z,50.46
2023-04-01T14:07:53.706Z,50.50
2023-04-01T14:10:56.612Z,49.92
2023-04-01T14:14:08.092Z,51.72
2023-04-01T14:17:16.681Z,51.75
2023-04-01T14:20:35.398Z,51.27
2023-04-01T14:24:06.742Z,52.07
2023-04-01T14:27:37.026Z,51.46
2023-04-01T14:31:04.355Z,52.20
2023-04-01T14:34:16.090Z,53.20
2023-04-01T14:37:56.822Z,51.99
2023-04-01T14:41:18.980Z,52.22
2023-04-01T14:45:05.371Z,51.37
2023-04-01T14:48:23.209Z,51.37
2023-04-01T14:51:41.000Z,52.27
2023-04-01T14:54:49.028Z,52.43
2023-04-01T14:58:05.744Z,51.85
2023-04-01T15:01:31.519Z,52.00
2023-04-01T15:05:01.981Z,52.61
2023-04-01T15:08:36.995Z,52.47
2023-04-01T15:11:55.235Z,51.92
2023-04-01T15:15:20.955Z,51.75
2023-04-01T15:18:32.132Z,52.94
2023-04-01T15:21:37.746Z,52.51
2023-04-01T15:24:48.440Z,52.57
2023-04-01T15:28:16.861Z,52.56
2023-04-01T15:31:26.467Z,53.16
2023-04-01T15:34:35.323Z,54.34
2023-04-01T15:37:48.060Z,54.51
2023-04-01T15:40:58.917Z,53.54
2023-04-01T15:44:01.788Z,53.71
2023-04-01T15:47:20.843Z,53.54
2023-04-01T15:50:39.618Z,54.69
2023-04-01T15:54:04.015Z,53.26
2023-04-01T15:57:27.532Z,53.48
2023-04-01T16:00:59.000Z,54.55
2023-04-01T16:04:01.924Z,54.43
2023-04-01T16:07:11.694Z,54.45
2023-04-01T16:10:46.803Z,55.13
2023-04-01T16:14:01.185Z,55.26
2023-04-01T16:17:50.406Z,54.47
2023-04-01T16:21:15.800Z,54.20
2023-04-01T16:24:25.870Z,54.94
2023-04-01T16:27:49.103Z,55.18
2023-04-01T16:30:59.476Z,55.24
2023-04-01T16:34:22.719Z,55.23
2023-04-01T16:38:15.058Z,55.27
2023-04-01T16:41:38.120Z,54.33
2023-04-01T16:45:16.756Z,55.02
2023-04-01T16:48:22.714Z,55.35
2023-04-01T16:51:33.738Z,55.81
2023-04-01T16:58:01.307Z,55.49
2023-04-01T17:01:13.964Z,55.05
2023-04-01T17:04:28.267Z,55.93
2023-04-01T17:07:45.265Z,55.33
2023-04-01T17:11:09.715Z,56.28
2023-04-01T17:14:51.781Z,56.58
2023-04-01T17:18:00.613Z,56.70
2023-04-01T17:21:19.010Z,56.79
2023-04-01T17:24:35.730Z,57.43
2023-04-01T17:28:19.188Z,57.03
2023-04-01T17:31:43.180Z,57.81
2023-04-01T17:34:54.730Z,57.05
2023-04-01T17:38:09.095Z,57.69
2023-04-01T17:41:23.041Z,58.07
2023-04-01T17:44:53.525Z,58.10
2023-04-01T17:48:07.985Z,58.62
2023-04-01T17:51:16.525Z,58.27
2023-04-01T17:54:28.168Z,57.92
2023-04-01T17:57:53.205Z,58.29
2023-04-01T18:01:06.452Z,58.79
2023-04-01T18:04:50.493Z,59.04
2023-04-01T18:07:58.780Z,59.71
2023-04-01T18:11:36.187Z,59.90
2023-04-01T18:15:03.648Z,59.93
2023-04-01T18:18:43.250Z,61.28
2023-04-01T18:21:54.919Z,61.54
2023-04-01T18:25:24.154Z,61.12
2023-04-01T18:28:32.336Z,61.41
2023-04-01T18:31:39.792Z,61.57
2023-04-01T18:34:56.171Z,61.55
2023-04-01T18:38:12.505Z,61.28
2023-04-01T18:41:20.382Z,61.73
2023-04-01T18:44:32.479Z,62.09
2023-04-01T18:47:53.596Z,62.20
2023-04-01T18:50:59.399Z,61.70
2023-04-01T18:54:18.890Z,61.77
2023-04-01T18:57:24.911Z,62.14
2023-04-01T19:00:40.806Z,62.60
2023-04-01T19:04:00.372Z,63.25
2023-04-01T19:07:41.138Z,63.77
2023-04-01T19:11:19.558Z,64.32
2023-04-01T19:14:48.929Z,64.44
2023-04-01T19:18:19.996Z,64.96
2023-04-01T19:21:30.401Z,64.96
2023-04-01T19:25:15.474Z,65.39
2023-04-01T19:28:37.210Z,66.01
2023-04-01T19:31:55.658Z,66.51
2023-04-01T19:35:08.548Z,67.12
2023-04-01T19:38:22.937Z,67.70
2023-04-01T19:41:37.952Z,67.86
2023-04-01T19:45:15.722Z,68.67
2023-04-01T19:48:33.556Z,68.75
2023-04-01T19:51:57.742Z,68.94
2023-04-01T19:55:17.959Z,68.98
2023-04-01T19:58:43.037Z,69.14
2023-04-01T20:02:08.769Z,69.01
2023-04-01T20:05:22.586Z,69.29
2023-04-01T20:09:06.990Z,69.25
2023-04-01T20:12:19.140Z,69.30
2023-04-01T20:15:39.302Z,69.75
2023-04-01T20:18:58.821Z,70.48
2023-04-01T20:22:04.092Z,70.29
2023-04-01T20:25:20.512Z,70.18
2023-04-01T20:28:29.994Z,70.40
2023-04-01T20:31:38.595Z,70.77
2023-04-01T20:35:13.450Z,70.98
2023-04-01T20:38:53.270Z,71.55
2023-04-01T20:42:18.229Z,71.98
2023-04-01T20:45:33.703Z,72.25
2023-04-01T20:48:58.831Z,72.60
2023-04-01T20:52:14.112Z,73.22
2023-04-01T20:55:30.647Z,73.92
2023-04-01T20:58:53.027Z,73.84
2023-04-01T21:02:28.223Z,74.14
2023-04-01T21:05:49.849Z,74.72
2023-04-01T21:09:12.888Z,75.08
2023-04-01T21:12:27.415Z,75.25
2023-04-01T21:15:43.882Z,75.73
2023-04-01T21:19:09.807Z,76.44
2023-04-01T21:22:30.717Z,76.77
2023-04-01T21:25:55.195Z,76.58
2023-04-01T21:29:12.717Z,76.73
2023-04-01T21:32:39.911Z,77.09
2023-04-01T21:36:01.119Z,77.71
2023-04-01T21:39:42.741Z,77.98
2023-04-01T21:43:06.903Z,78.39
2023-04-01T21:46:47.028Z,78.83
2023-04-01T21:50:24.027Z,79.20
2023-04-01T21:53:51.704Z,79.46
2023-04-01T21:57:28.558Z,80.13
2023-04-01T22:00:39.618Z,80.36
2023-04-01T22:04:01.624Z,80.27
2023-04-01T22:07:33.805Z,80.88
2023-04-01T22:10:46.932Z,81.38
2023-04-01T22:14:11.451Z,81.89
2023-04-01T22:17:26.572Z,81.38
2023-04-01T22:20:34.798Z,80.00
2023-04-01T22:23:47.090Z,79.09
2023-04-01T22:27:31.341Z,77.89
2023-04-01T22:30:35.227Z,77.70
2023-04-01T22:34:15.450Z,77.55
2023-04-01T22:37:42.185Z,77.10
2023-04-01T22:41:03.028Z,76.78
2023-04-01T22:44:32.291Z,76.37
2023-04-01T22:48:02.429Z,75.84
2023-04-01T22:51:17.900Z,75.58
2023-04-01T22:54:46.562Z,75.52
2023-04-01T22:57:53.336Z,76.02
2023-04-01T23:01:02.302Z,76.21
2023-04-01T23:04:07.371Z,76.67
2023-04-01T23:07:36.324Z,76.58
2023-04-01T23:10:53.752Z,75.86
2023-04-01T23:14:11.562Z,75.74
2023-04-01T23:17:37.403Z,75.85
2023-04-01T23:21:16.969Z,76.69
2023-04-01T23:24:34.393Z,76.33
2023-04-01T23:27:48.545Z,76.10
2023-04-01T23:30:52.356Z,76.58
2023-04-01T23:34:19.493Z,76.39
2023-04-01T23:37:23.315Z,76.62
2023-04-01T23:40:27.475Z,76.90
2023-04-01T23:43:38.149Z,76.66
2023-04-01T23:46:42.059Z,77.04
2023-04-01T23:49:56.445Z,77.16
2023-04-01T23:53:05.694Z,76.91
2023-04-01T23:56:08.548Z,76.37
2023-04-01T23:59:19.641Z,76.87
